Aérodrome :
LOGIN :

S'inscrire | Disclaimer

   EN    FR    IT 

 










Légende :    VFR   VFR Marginal   IFR   IFR Intensif   IFR Très Intensif
Visi : 
Plafond : 
>= 8 km
>= 3000ft
5 à 8 km
1000 à 3000 ft
1500m à 5 km
500 à 1000 ft
800 à 1500m
200 à 500 ft
< 800m
< 200 ft
Symboles :   Orages  Brouillard  Fortes neiges  Fortes précipitations  Vent > 20 kt
SIGMETs :   Divers  Orages  Givrage  Turbulence  Onde Orograph.  Cendres Volcan.







- Altitude de l'aérodrome : 95 ft
- Code IATA : AHU


GMTA - Al Hoceima

DERNIER METAR :
  • 171900Z 26004KT CAVOK 15/09 Q1021 NOSIG

METARs EXPIRÉS :
  • 171800Z 32008KT CAVOK 16/10 Q1021 NOSIG
  • 171700Z 32006KT CAVOK 18/09 Q1020 NOSIG

TAF TAF GMTA
Valide du 17 à 18h jusqu'au 19 à 00h UTC


171700Z 1718/1824 32008KT CAVOK
BECMG 1718/1720 SCT013
PROB30 1723/1804 VRB02KT 4000 BR SCT008
BECMG 1812/1815 BKN010
Pas de NOTAMs connus pour ce terrain.



MET'MAP, la Météo Aéronautique d'un coup d'oeil ! - Copyright ORBIFLY Décembre 2007 - Disclaimer

ORBIFLY MET'MAP TEAM :

Programmation & Développement : Alexandra Zaïnal
Conception & Développement : Baudouin d'Aumeries
Co-Programmation & Développement : Marc-Olivier Méhu
Soutien technique & logistique : Manuel Goepfert

Contact : metmap@orbifly.com




SOURCES & CREDITS :

   NOAA